Flugplatz Wendelsheim (UL)

Hier findest Du alle Informationen zum Flugplatz Wendelsheim (UL).

Informationen für Piloten zum Flugplatz Wendelsheim

Hier findest Du alle relevanten Informationen, die Du als Pilot benötigst, um Wendelsheim anzufliegen.

Flugplatz: Wendelsheim ICAO-Code: UL Flugplatz
Frequenz Turm: 123,425 Mhz GAFOR Gebiet: 44
Frequenz Ground: 123,425 Mhz Mogas: nein
Platzrunde: N 1200 ft Landegebühr: 15 €
Platzhöhe: Sunrise: 03:41 Uhr UTC
Pisten: 06/24 - 300 m x 30 m, GRAS Sunset: 19:06 Uhr UTC

Flugwetter am Flugplatz Wendelsheim

Die METAR Information stammen aus EDFM (49.67 km entfernt).

METAR Code:
2021/05/10 18:20
EDFM 101820Z 19004KT 9999 -RA FEW041 BKN060 14/13 Q1010

Flugschulen am Flugplatz Wendelsheim

Am Flugplatz Wendelsheim gibt es leider keine Flugschule.

Benachbarte Flugplätze und Flugschulen

Es gibt 21 weitere Flugplätze in einem Umkreis von 50 km um den Flugplatz Wendelsheim.

Jetzt anmelden

Passwort vergessen

Umfrage Archiv

Seid Ihr aufgrund von Corona im Jahr 2020 mehr oder weniger geflogen als im Jahr zuvor?

weniger
56 %
gleich viel
26.9 %
mehr
17.1 %
Stimmen: 216 | Diskussion
Anzeige: Roland Aircraft
Statistik Alle Mitglieder

Aktuell sind 44 Besucher online, davon 2 Mitglieder und 42 Gäste.


Mitglieder online:
edcm-pilot  aviatrix 

Anzeige: VFR Sprechfunk Simulator


Anzeige: Pocket FMS